Portada
METAR-TAF:

METAR-TAF

Aeroports :

Sharurah, Aràbia Saudita

latitud: 17-28N, longitud: 047-07E, altitud: 720 m

Observació

L'informe es va fer fa 20 minuts, a les 23:00 UTC
Vent 10 kt del Sud-Est
Temperatura 21°C
Humitat 40%
Pressió 1014 hPa
Visibilitat 10 km o més
sense núvols per sota de 1500 mi sense presència de cumulonimbus.

METAR: OESH 172300Z 13010KT CAVOK 21/07 Q1014 NOSIG

Hora: 02:20 (23:20 UTC)

Pronòstic

L'informe es va fer fa 12 hores i 20 minuts, a les 11:00 UTC
Pronòstic vàlid del 17 a les 12 UTC al 18 a les 18 UTC
Vent 12 kt del Sud/Sud-Est
Visibilitat 10 km o més
Escasses núvols a una alçada de 3000 ft
Evolucionant progressivament
l' 17 a les 18 UTC al 17 a les 20 UTC
Vent 3 kt amb direcció variable

TAF: OESH 171100Z 1712/1818 15012KT 9999 FEW030 BECMG 1718/1720 VRB03KT

Observacions i pronòstics meteorològics de més de 4000 aeroports (METAR i TAF).

Les estacions disponibles són els punts grocs i vermells al mapa.

Posi el ratolí al punt desitjat per veure el nom de l'estació.

Feu clic per veure les observacions i els pronòstics meteorològics.

Per canviar el mapa: feu clic els botons verds amb una creu de color negre per apropar; al botó verd amb un guió per allunyar la imatge; o en les fletxes verdes per a mapes adjacents.


METAR-TAF: